createdAt,value
2023-01-28T02:15:19.841Z,24.40
2023-01-28T02:17:49.564Z,26.30
2023-01-28T02:20:23.269Z,27.50
2023-01-28T02:23:28.413Z,25.70
2023-01-28T02:26:01.865Z,25.90
2023-01-28T02:28:39.329Z,26.60
2023-01-28T02:33:49.670Z,27.00
2023-01-28T02:36:28.588Z,25.30
2023-01-28T02:38:58.765Z,25.70
2023-01-28T02:41:30.488Z,26.40
2023-01-28T02:44:02.628Z,26.90
2023-01-28T02:46:49.312Z,27.60
2023-01-28T02:49:45.175Z,27.40
2023-01-28T02:52:46.490Z,26.10
2023-01-28T02:55:41.495Z,26.40
2023-01-28T02:58:37.700Z,26.30
2023-01-28T03:01:23.569Z,27.30
2023-01-28T03:03:59.767Z,27.20
2023-01-28T03:06:34.547Z,25.10
2023-01-28T03:09:24.363Z,26.40
2023-01-28T03:12:38.439Z,27.10
2023-01-28T03:15:29.169Z,26.20
2023-01-28T03:18:26.125Z,26.70
2023-01-28T03:21:23.266Z,25.60
2023-01-28T03:24:16.437Z,27.30
2023-01-28T03:27:12.479Z,27.00
2023-01-28T03:30:00.420Z,26.50
2023-01-28T03:32:47.733Z,25.30
2023-01-28T03:35:34.501Z,26.10
2023-01-28T03:38:18.718Z,25.40
2023-01-28T03:40:55.390Z,26.70
2023-01-28T03:43:24.122Z,25.90
2023-01-28T03:45:52.621Z,27.40
2023-01-28T03:48:22.213Z,28.10
2023-01-28T03:51:00.466Z,26.60
2023-01-28T03:53:29.635Z,26.50
2023-01-28T03:55:58.917Z,23.40
2023-01-28T03:58:48.683Z,22.80
2023-01-28T04:01:17.050Z,22.70
2023-01-28T04:03:45.100Z,24.20
2023-01-28T04:06:19.283Z,22.40
2023-01-28T04:09:16.657Z,24.80
2023-01-28T04:11:54.694Z,22.20
2023-01-28T04:14:30.018Z,23.30
2023-01-28T04:17:24.903Z,22.40
2023-01-28T04:19:53.370Z,23.70
2023-01-28T04:22:22.222Z,23.30
2023-01-28T04:24:52.476Z,22.30
2023-01-28T04:27:20.722Z,23.50
2023-01-28T04:29:50.573Z,23.10
2023-01-28T04:32:40.517Z,22.00
2023-01-28T04:35:32.086Z,21.80
2023-01-28T04:38:13.009Z,23.50
2023-01-28T04:41:02.393Z,24.10
2023-01-28T04:43:34.241Z,22.60
2023-01-28T04:46:32.411Z,22.00
2023-01-28T04:49:07.751Z,22.40
2023-01-28T04:51:53.486Z,22.70
2023-01-28T04:54:45.024Z,22.50
2023-01-28T04:57:13.067Z,21.90
2023-01-28T04:59:41.190Z,22.10
2023-01-28T05:02:09.383Z,23.90
2023-01-28T05:04:37.554Z,25.20
2023-01-28T05:07:05.934Z,22.60
2023-01-28T05:09:37.376Z,22.30
2023-01-28T05:12:06.099Z,23.70
2023-01-28T05:14:34.573Z,23.00
2023-01-28T05:17:07.825Z,22.60
2023-01-28T05:19:37.980Z,22.00
2023-01-28T05:22:11.686Z,22.50
2023-01-28T05:24:44.015Z,22.10
2023-01-28T05:27:12.184Z,22.20
2023-01-28T05:29:40.269Z,23.00
2023-01-28T05:32:09.641Z,21.60
2023-01-28T05:34:37.808Z,20.30
2023-01-28T05:37:11.602Z,20.50
2023-01-28T05:39:40.282Z,21.10
2023-01-28T05:42:09.528Z,21.40
2023-01-28T05:44:42.508Z,22.10
2023-01-28T05:47:25.213Z,21.20
2023-01-28T05:50:01.015Z,22.20
2023-01-28T05:52:45.687Z,20.60
2023-01-28T05:55:23.361Z,20.00
2023-01-28T05:57:52.075Z,20.80
2023-01-28T06:00:23.191Z,21.30
2023-01-28T06:02:52.578Z,20.80
2023-01-28T06:05:21.607Z,23.40
2023-01-28T06:07:49.747Z,21.70
2023-01-28T06:10:18.227Z,21.10
2023-01-28T06:12:48.979Z,20.40
2023-01-28T06:15:40.194Z,18.80
2023-01-28T06:18:21.868Z,20.60
2023-01-28T06:20:50.920Z,19.50
2023-01-28T06:23:19.465Z,19.40
2023-01-28T06:25:47.478Z,21.20
2023-01-28T06:28:17.770Z,21.00
2023-01-28T06:30:49.435Z,22.70
2023-01-28T06:33:21.432Z,20.10
2023-01-28T06:35:49.849Z,19.40
2023-01-28T06:38:18.766Z,19.40
2023-01-28T06:40:55.788Z,19.40
2023-01-28T06:43:28.245Z,19.80
2023-01-28T06:45:57.091Z,19.90
2023-01-28T06:48:25.233Z,21.50
2023-01-28T06:50:57.114Z,19.40
2023-01-28T06:53:25.501Z,20.70
2023-01-28T06:55:53.800Z,19.30
2023-01-28T06:58:22.367Z,19.10
2023-01-28T07:00:50.686Z,19.40
2023-01-28T07:03:18.887Z,18.30
2023-01-28T07:05:47.047Z,18.80
2023-01-28T07:08:15.168Z,18.60
2023-01-28T07:10:44.074Z,19.30
2023-01-28T07:13:12.283Z,19.60
2023-01-28T07:15:41.890Z,19.10
2023-01-28T07:18:09.907Z,18.50
2023-01-28T07:20:37.878Z,18.90
2023-01-28T07:23:06.065Z,18.50
2023-01-28T07:25:34.808Z,17.10
2023-01-28T07:28:02.824Z,17.60
2023-01-28T07:30:31.634Z,18.70
2023-01-28T07:32:59.952Z,19.70
2023-01-28T07:35:28.055Z,18.00
2023-01-28T07:37:57.650Z,18.00
2023-01-28T07:40:26.443Z,18.70
2023-01-28T12:10:03.316Z,18.80
2023-01-28T12:12:41.807Z,20.50
2023-01-28T12:15:39.925Z,21.90
2023-01-28T12:18:12.243Z,21.20
2023-01-28T12:20:40.175Z,21.10
2023-01-28T12:23:12.514Z,19.90
2023-01-28T12:25:47.961Z,18.90
2023-01-28T12:28:25.855Z,18.00
2023-01-28T12:31:18.187Z,18.90
2023-01-28T12:33:56.624Z,19.90
2023-01-28T12:36:43.590Z,19.90
2023-01-28T12:39:20.434Z,19.10
2023-01-28T12:41:51.270Z,20.90
2023-01-28T12:44:23.765Z,20.60
2023-01-28T12:46:54.015Z,19.70
2023-01-28T12:49:40.596Z,21.20
2023-01-28T12:52:19.223Z,20.40
2023-01-28T12:55:21.250Z,20.20
2023-01-28T12:57:57.143Z,20.10
2023-01-28T13:00:39.520Z,22.20
2023-01-28T13:03:26.571Z,19.90
2023-01-28T13:06:02.916Z,19.20
2023-01-28T13:08:31.117Z,19.10
2023-01-28T13:11:00.484Z,18.30
2023-01-28T13:13:31.071Z,20.40
2023-01-28T13:15:59.908Z,17.80
2023-01-28T13:18:39.529Z,17.70
2023-01-28T13:21:25.203Z,18.40
2023-01-28T13:24:02.486Z,17.30
2023-01-28T13:26:38.452Z,18.00
2023-01-28T13:29:15.699Z,20.10
2023-01-28T13:31:45.238Z,17.90
2023-01-28T13:34:51.422Z,18.10
2023-01-28T13:37:32.159Z,17.10
2023-01-28T13:40:09.317Z,16.80
2023-01-28T13:42:37.395Z,17.60
2023-01-28T13:45:18.109Z,17.90
2023-01-28T13:47:48.093Z,17.70
2023-01-28T13:50:23.553Z,18.70
2023-01-28T13:53:25.650Z,19.00
2023-01-28T13:55:54.302Z,17.70
2023-01-28T13:58:30.994Z,17.60
2023-01-28T14:01:27.170Z,17.90
2023-01-28T14:04:22.761Z,17.50
2023-01-28T14:07:12.249Z,17.50
2023-01-28T14:09:49.159Z,17.10
2023-01-28T14:12:39.378Z,16.00
2023-01-28T14:15:23.129Z,15.90
2023-01-28T14:17:52.502Z,16.10
2023-01-28T14:20:27.578Z,15.50
2023-01-28T14:23:00.019Z,16.30
2023-01-28T14:25:49.862Z,15.60
2023-01-28T14:28:21.459Z,14.30
2023-01-28T14:30:57.853Z,15.90
2023-01-28T14:33:25.814Z,13.90
2023-01-28T14:35:53.737Z,14.80
2023-01-28T14:38:21.788Z,15.40
2023-01-28T14:40:52.730Z,14.50
2023-01-28T14:43:22.503Z,14.90
2023-01-28T14:45:53.282Z,13.80
2023-01-28T14:48:43.417Z,15.90
2023-01-28T14:51:18.887Z,15.50
2023-01-28T14:54:09.221Z,16.00
2023-01-28T14:57:08.626Z,16.10
2023-01-28T15:02:20.263Z,15.60
2023-01-28T15:04:49.835Z,15.90
2023-01-28T15:07:25.521Z,18.00
2023-01-28T15:10:07.734Z,16.40
2023-01-28T15:12:38.025Z,16.30
2023-01-28T15:15:11.687Z,17.00
2023-01-28T15:17:39.910Z,17.80
2023-01-28T15:20:09.055Z,17.00
2023-01-28T15:22:37.012Z,16.20
2023-01-28T15:25:07.453Z,16.80
2023-01-28T15:27:35.852Z,16.80
2023-01-28T15:30:27.822Z,16.40
2023-01-28T15:33:12.854Z,17.60
2023-01-28T15:35:48.194Z,17.70
2023-01-28T15:38:17.941Z,17.40
2023-01-28T15:40:55.207Z,16.30
2023-01-28T15:43:25.795Z,17.20
2023-01-28T15:45:57.050Z,17.90
2023-01-28T15:48:26.585Z,17.80
2023-01-28T15:51:02.604Z,16.80
2023-01-28T19:58:45.786Z,16.70
2023-01-28T20:01:14.861Z,20.40
2023-01-28T20:03:43.918Z,26.90
2023-01-28T20:06:13.703Z,22.80
2023-01-28T20:08:42.180Z,23.00
2023-01-28T20:11:14.972Z,19.10
2023-01-28T20:13:44.316Z,20.50
2023-01-28T20:16:17.833Z,19.00
2023-01-28T20:18:53.571Z,18.30
2023-01-28T20:21:21.654Z,17.70
2023-01-28T20:23:51.515Z,17.20
2023-01-28T20:26:24.020Z,16.90
2023-01-28T20:28:52.076Z,15.50
2023-01-28T20:31:20.718Z,15.30
2023-01-28T20:33:49.221Z,15.10
2023-01-28T20:36:17.303Z,15.20
2023-01-28T20:38:46.792Z,15.80
2023-01-28T20:41:16.766Z,15.60
2023-01-28T20:43:45.013Z,14.00
2023-01-28T20:46:21.340Z,14.70
2023-01-28T20:48:49.688Z,13.70
2023-01-28T20:51:19.214Z,16.60
2023-01-28T20:53:48.048Z,14.50
2023-01-28T20:56:19.486Z,14.40
2023-01-28T20:58:49.411Z,14.30
2023-01-28T21:01:28.344Z,14.10
2023-01-28T21:03:56.266Z,13.30
2023-01-28T21:06:26.678Z,13.70
2023-01-28T21:08:54.711Z,14.70
2023-01-28T21:11:23.290Z,14.20
2023-01-28T21:13:51.529Z,14.50
2023-01-28T21:16:19.758Z,12.40
2023-01-28T21:18:48.708Z,13.10
2023-01-28T21:21:18.006Z,13.90
2023-01-28T21:23:46.006Z,13.70
2023-01-28T21:26:15.628Z,13.50
2023-01-28T21:28:44.231Z,13.70
2023-01-28T21:31:17.052Z,14.30
2023-01-28T21:33:52.015Z,14.10
2023-01-28T21:36:20.038Z,16.00
2023-01-28T21:38:55.350Z,15.00
2023-01-28T21:41:24.672Z,12.80
2023-01-28T21:43:53.876Z,12.90
2023-01-28T21:46:27.000Z,12.10
2023-01-28T21:49:01.259Z,14.00
2023-01-28T21:51:36.114Z,14.80
2023-01-28T21:54:05.016Z,13.50
2023-01-28T21:56:33.549Z,12.60
2023-01-28T21:59:20.369Z,11.80
2023-01-28T22:01:48.361Z,11.20
2023-01-28T22:04:20.989Z,12.40
2023-01-28T22:06:49.428Z,14.40
2023-01-28T22:09:17.456Z,13.70
2023-01-28T22:11:46.644Z,13.20
2023-01-28T22:14:15.133Z,13.40
2023-01-28T22:16:43.427Z,14.10
2023-01-28T22:19:11.631Z,12.00
2023-01-28T22:21:43.713Z,14.00
2023-01-28T22:24:16.254Z,13.50
2023-01-28T22:26:45.482Z,15.70
2023-01-28T22:29:14.272Z,13.80
2023-01-28T22:31:42.423Z,13.50
2023-01-28T22:34:10.486Z,14.50
2023-01-28T22:36:38.362Z,14.90
2023-01-28T22:39:07.521Z,15.40
2023-01-28T22:41:35.560Z,14.60
2023-01-28T22:44:04.494Z,15.90
2023-01-28T22:46:33.500Z,14.10
2023-01-28T22:49:02.525Z,14.10
2023-01-28T22:51:32.081Z,15.10
2023-01-28T22:54:00.382Z,15.60
2023-01-28T22:56:29.453Z,14.80
2023-01-28T22:58:59.283Z,14.30
2023-01-28T23:01:27.783Z,14.70
2023-01-28T23:03:56.294Z,13.20
2023-01-28T23:06:28.077Z,14.40
2023-01-28T23:08:56.571Z,13.10
2023-01-28T23:11:28.316Z,13.00
2023-01-28T23:14:16.903Z,13.40
2023-01-28T23:17:03.617Z,14.60
2023-01-28T23:19:50.731Z,14.10
2023-01-28T23:22:42.666Z,14.30
2023-01-28T23:25:10.902Z,13.30
2023-01-28T23:27:38.815Z,14.00
2023-01-28T23:30:10.374Z,14.20
2023-01-28T23:32:44.009Z,13.60
2023-01-28T23:35:12.845Z,12.90
2023-01-28T23:37:41.642Z,13.40
2023-01-28T23:40:10.870Z,14.20
2023-01-28T23:42:38.958Z,14.10
2023-01-28T23:45:07.648Z,14.00
